sensor_id;sensor_type;location;lat;lon;timestamp;pressure;altitude;pressure_sealevel;temperature;humidity
7660;BME280;3872;47.902;8.162;2023-07-28T00:02:00;91475.47;;;14.15;100.00
7660;BME280;3872;47.902;8.162;2023-07-28T00:04:28;91469.78;;;14.25;100.00
7660;BME280;3872;47.902;8.162;2023-07-28T00:06:54;91470.53;;;14.13;100.00
7660;BME280;3872;47.902;8.162;2023-07-28T00:09:21;91468.38;;;14.27;100.00
7660;BME280;3872;47.902;8.162;2023-07-28T00:11:48;91463.25;;;14.22;100.00
7660;BME280;3872;47.902;8.162;2023-07-28T00:14:15;91460.78;;;14.05;100.00
7660;BME280;3872;47.902;8.162;2023-07-28T00:16:41;91464.84;;;14.02;100.00
7660;BME280;3872;47.902;8.162;2023-07-28T00:19:08;91459.44;;;13.78;100.00
7660;BME280;3872;47.902;8.162;2023-07-28T00:21:36;91453.41;;;14.10;100.00
7660;BME280;3872;47.902;8.162;2023-07-28T00:24:03;91452.00;;;14.13;100.00
7660;BME280;3872;47.902;8.162;2023-07-28T00:26:29;91444.41;;;13.91;100.00
7660;BME280;3872;47.902;8.162;2023-07-28T00:28:56;91445.28;;;14.16;100.00
7660;BME280;3872;47.902;8.162;2023-07-28T00:31:24;91448.53;;;14.33;100.00
7660;BME280;3872;47.902;8.162;2023-07-28T00:33:52;91442.78;;;14.64;100.00
7660;BME280;3872;47.902;8.162;2023-07-28T00:36:18;91445.19;;;14.45;100.00
7660;BME280;3872;47.902;8.162;2023-07-28T00:38:47;91447.81;;;14.45;100.00
7660;BME280;3872;47.902;8.162;2023-07-28T00:41:13;91444.09;;;14.46;100.00
7660;BME280;3872;47.902;8.162;2023-07-28T00:43:40;91449.22;;;14.63;100.00
7660;BME280;3872;47.902;8.162;2023-07-28T00:46:06;91441.03;;;14.56;100.00
7660;BME280;3872;47.902;8.162;2023-07-28T00:48:33;91441.88;;;14.48;100.00
7660;BME280;3872;47.902;8.162;2023-07-28T00:51:00;91442.16;;;14.34;100.00
7660;BME280;3872;47.902;8.162;2023-07-28T00:53:27;91438.03;;;14.25;100.00
7660;BME280;3872;47.902;8.162;2023-07-28T00:55:56;91440.34;;;14.26;100.00
7660;BME280;3872;47.902;8.162;2023-07-28T00:58:23;91432.84;;;14.28;100.00
7660;BME280;3872;47.902;8.162;2023-07-28T01:00:50;91439.56;;;14.46;100.00
7660;BME280;3872;47.902;8.162;2023-07-28T01:03:18;91438.25;;;14.20;100.00
7660;BME280;3872;47.902;8.162;2023-07-28T01:05:51;91438.53;;;14.39;100.00
7660;BME280;3872;47.902;8.162;2023-07-28T01:08:27;91441.88;;;14.48;100.00
7660;BME280;3872;47.902;8.162;2023-07-28T01:10:57;91442.22;;;14.59;100.00
7660;BME280;3872;47.902;8.162;2023-07-28T01:13:24;91441.66;;;14.41;100.00
7660;BME280;3872;47.902;8.162;2023-07-28T01:15:50;91441.44;;;14.46;100.00
7660;BME280;3872;47.902;8.162;2023-07-28T01:18:17;91441.47;;;14.58;100.00
7660;BME280;3872;47.902;8.162;2023-07-28T01:20:45;91444.00;;;14.67;100.00
7660;BME280;3872;47.902;8.162;2023-07-28T01:23:19;91438.06;;;14.70;100.00
7660;BME280;3872;47.902;8.162;2023-07-28T01:25:49;91448.84;;;14.53;100.00
7660;BME280;3872;47.902;8.162;2023-07-28T01:28:21;91437.94;;;14.66;100.00
7660;BME280;3872;47.902;8.162;2023-07-28T01:30:48;91440.50;;;14.75;100.00
7660;BME280;3872;47.902;8.162;2023-07-28T01:33:15;91435.88;;;14.84;100.00
7660;BME280;3872;47.902;8.162;2023-07-28T01:35:42;91448.75;;;14.61;100.00
7660;BME280;3872;47.902;8.162;2023-07-28T01:38:08;91447.03;;;14.77;100.00
7660;BME280;3872;47.902;8.162;2023-07-28T01:40:35;91442.84;;;14.88;100.00
7660;BME280;3872;47.902;8.162;2023-07-28T01:43:01;91446.34;;;14.80;100.00
7660;BME280;3872;47.902;8.162;2023-07-28T01:45:29;91442.53;;;14.45;100.00
7660;BME280;3872;47.902;8.162;2023-07-28T01:47:56;91453.91;;;14.45;100.00
7660;BME280;3872;47.902;8.162;2023-07-28T01:50:22;91450.84;;;14.56;100.00
7660;BME280;3872;47.902;8.162;2023-07-28T01:52:49;91454.88;;;14.41;100.00
7660;BME280;3872;47.902;8.162;2023-07-28T01:55:16;91444.81;;;14.34;100.00
7660;BME280;3872;47.902;8.162;2023-07-28T01:57:50;91451.81;;;14.30;100.00
7660;BME280;3872;47.902;8.162;2023-07-28T02:00:18;91448.72;;;14.28;100.00
7660;BME280;3872;47.902;8.162;2023-07-28T02:02:48;91451.06;;;14.30;100.00
7660;BME280;3872;47.902;8.162;2023-07-28T02:05:15;91451.78;;;14.18;100.00
7660;BME280;3872;47.902;8.162;2023-07-28T02:07:41;91449.63;;;14.53;100.00
7660;BME280;3872;47.902;8.162;2023-07-28T02:10:08;91451.56;;;14.44;100.00
7660;BME280;3872;47.902;8.162;2023-07-28T02:12:35;91465.19;;;14.67;100.00
7660;BME280;3872;47.902;8.162;2023-07-28T02:15:02;91465.56;;;14.77;100.00
7660;BME280;3872;47.902;8.162;2023-07-28T02:17:28;91460.16;;;14.86;100.00
7660;BME280;3872;47.902;8.162;2023-07-28T02:19:56;91472.97;;;14.39;100.00
7660;BME280;3872;47.902;8.162;2023-07-28T02:22:23;91464.44;;;14.33;100.00
7660;BME280;3872;47.902;8.162;2023-07-28T02:24:49;91470.25;;;14.60;100.00
7660;BME280;3872;47.902;8.162;2023-07-28T02:27:16;91468.72;;;14.71;100.00
7660;BME280;3872;47.902;8.162;2023-07-28T02:29:42;91473.16;;;14.79;100.00
7660;BME280;3872;47.902;8.162;2023-07-28T02:32:10;91464.19;;;14.59;100.00
7660;BME280;3872;47.902;8.162;2023-07-28T02:34:37;91475.28;;;14.40;100.00
7660;BME280;3872;47.902;8.162;2023-07-28T02:37:05;91474.31;;;14.24;100.00
7660;BME280;3872;47.902;8.162;2023-07-28T02:39:31;91476.63;;;14.46;100.00
7660;BME280;3872;47.902;8.162;2023-07-28T02:41:58;91481.63;;;14.60;100.00
7660;BME280;3872;47.902;8.162;2023-07-28T02:44:24;91488.19;;;14.42;100.00
7660;BME280;3872;47.902;8.162;2023-07-28T02:46:51;91484.88;;;14.45;100.00
7660;BME280;3872;47.902;8.162;2023-07-28T02:49:18;91485.72;;;14.37;100.00
7660;BME280;3872;47.902;8.162;2023-07-28T02:51:45;91479.13;;;14.76;100.00
7660;BME280;3872;47.902;8.162;2023-07-28T02:54:13;91478.03;;;14.77;100.00
7660;BME280;3872;47.902;8.162;2023-07-28T02:56:39;91486.56;;;14.29;100.00
7660;BME280;3872;47.902;8.162;2023-07-28T02:59:10;91491.94;;;14.41;100.00
7660;BME280;3872;47.902;8.162;2023-07-28T03:01:36;91502.66;;;14.77;100.00
7660;BME280;3872;47.902;8.162;2023-07-28T03:04:03;91497.59;;;14.84;100.00
7660;BME280;3872;47.902;8.162;2023-07-28T03:06:44;91499.09;;;14.73;100.00
7660;BME280;3872;47.902;8.162;2023-07-28T03:09:12;91498.69;;;14.83;100.00
7660;BME280;3872;47.902;8.162;2023-07-28T03:11:47;91506.34;;;14.64;100.00
7660;BME280;3872;47.902;8.162;2023-07-28T03:14:14;91503.53;;;14.81;100.00
7660;BME280;3872;47.902;8.162;2023-07-28T03:16:42;91508.50;;;14.83;100.00
7660;BME280;3872;47.902;8.162;2023-07-28T03:19:09;91506.59;;;14.71;100.00
7660;BME280;3872;47.902;8.162;2023-07-28T03:21:35;91506.19;;;14.94;100.00
7660;BME280;3872;47.902;8.162;2023-07-28T03:24:02;91505.66;;;15.00;100.00
7660;BME280;3872;47.902;8.162;2023-07-28T03:26:30;91506.09;;;14.90;100.00
7660;BME280;3872;47.902;8.162;2023-07-28T03:28:57;91501.25;;;15.16;100.00
7660;BME280;3872;47.902;8.162;2023-07-28T03:31:23;91500.25;;;15.09;100.00
7660;BME280;3872;47.902;8.162;2023-07-28T03:33:50;91494.88;;;15.29;100.00
7660;BME280;3872;47.902;8.162;2023-07-28T03:36:17;91490.53;;;15.49;100.00
7660;BME280;3872;47.902;8.162;2023-07-28T03:38:44;91496.88;;;15.69;100.00
7660;BME280;3872;47.902;8.162;2023-07-28T03:41:11;91493.34;;;15.41;100.00
7660;BME280;3872;47.902;8.162;2023-07-28T03:43:39;91497.88;;;15.77;100.00
7660;BME280;3872;47.902;8.162;2023-07-28T03:46:06;91501.31;;;15.77;100.00
7660;BME280;3872;47.902;8.162;2023-07-28T03:48:33;91491.84;;;16.04;100.00
7660;BME280;3872;47.902;8.162;2023-07-28T03:50:59;91476.78;;;16.08;100.00
7660;BME280;3872;47.902;8.162;2023-07-28T03:53:26;91485.19;;;16.10;100.00
7660;BME280;3872;47.902;8.162;2023-07-28T03:55:53;91496.22;;;16.24;100.00
7660;BME280;3872;47.902;8.162;2023-07-28T03:58:23;91500.00;;;16.11;100.00
7660;BME280;3872;47.902;8.162;2023-07-28T04:00:51;91491.94;;;16.08;100.00
7660;BME280;3872;47.902;8.162;2023-07-28T04:03:19;91490.59;;;16.14;100.00
7660;BME280;3872;47.902;8.162;2023-07-28T04:05:45;91491.44;;;16.58;100.00
7660;BME280;3872;47.902;8.162;2023-07-28T04:08:12;91493.69;;;16.83;100.00
7660;BME280;3872;47.902;8.162;2023-07-28T04:10:38;91490.88;;;16.64;100.00
7660;BME280;3872;47.902;8.162;2023-07-28T04:13:05;91491.94;;;16.75;100.00
7660;BME280;3872;47.902;8.162;2023-07-28T04:15:32;91493.31;;;16.85;100.00
7660;BME280;3872;47.902;8.162;2023-07-28T04:18:00;91488.31;;;16.68;100.00
7660;BME280;3872;47.902;8.162;2023-07-28T04:20:26;91499.00;;;16.99;100.00
7660;BME280;3872;47.902;8.162;2023-07-28T04:22:53;91497.13;;;17.15;100.00
7660;BME280;3872;47.902;8.162;2023-07-28T04:25:19;91491.75;;;16.68;100.00
7660;BME280;3872;47.902;8.162;2023-07-28T04:27:47;91490.06;;;16.76;100.00
7660;BME280;3872;47.902;8.162;2023-07-28T04:30:14;91496.50;;;16.91;100.00
7660;BME280;3872;47.902;8.162;2023-07-28T04:32:40;91496.88;;;17.05;100.00
7660;BME280;3872;47.902;8.162;2023-07-28T04:35:16;91500.38;;;17.09;100.00
7660;BME280;3872;47.902;8.162;2023-07-28T04:37:55;91494.31;;;17.24;100.00
7660;BME280;3872;47.902;8.162;2023-07-28T04:40:47;91503.22;;;17.32;100.00
7660;BME280;3872;47.902;8.162;2023-07-28T04:43:18;91496.34;;;16.99;100.00
7660;BME280;3872;47.902;8.162;2023-07-28T04:45:51;91490.94;;;17.27;100.00
7660;BME280;3872;47.902;8.162;2023-07-28T04:48:19;91492.31;;;17.52;100.00
7660;BME280;3872;47.902;8.162;2023-07-28T04:50:47;91502.63;;;17.38;100.00
7660;BME280;3872;47.902;8.162;2023-07-28T04:53:29;91499.53;;;17.36;100.00
7660;BME280;3872;47.902;8.162;2023-07-28T04:56:09;91490.44;;;17.53;100.00
7660;BME280;3872;47.902;8.162;2023-07-28T04:58:36;91489.38;;;17.57;100.00
7660;BME280;3872;47.902;8.162;2023-07-28T05:01:03;91500.81;;;17.74;100.00
7660;BME280;3872;47.902;8.162;2023-07-28T05:03:31;91498.66;;;17.79;100.00
7660;BME280;3872;47.902;8.162;2023-07-28T05:06:12;91488.22;;;17.39;100.00
7660;BME280;3872;47.902;8.162;2023-07-28T05:08:39;91496.69;;;17.13;100.00
7660;BME280;3872;47.902;8.162;2023-07-28T05:11:06;91486.66;;;17.54;100.00
7660;BME280;3872;47.902;8.162;2023-07-28T05:13:33;91495.16;;;17.28;100.00
7660;BME280;3872;47.902;8.162;2023-07-28T05:15:59;91488.81;;;17.64;100.00
7660;BME280;3872;47.902;8.162;2023-07-28T05:18:49;91491.22;;;18.04;100.00
7660;BME280;3872;47.902;8.162;2023-07-28T05:21:34;91494.59;;;17.85;100.00
7660;BME280;3872;47.902;8.162;2023-07-28T05:24:01;91496.63;;;18.08;100.00
7660;BME280;3872;47.902;8.162;2023-07-28T05:26:29;91505.28;;;18.05;100.00
7660;BME280;3872;47.902;8.162;2023-07-28T05:28:56;91497.38;;;18.08;100.00
7660;BME280;3872;47.902;8.162;2023-07-28T05:31:24;91504.13;;;17.86;100.00
7660;BME280;3872;47.902;8.162;2023-07-28T05:33:50;91504.06;;;18.18;100.00
7660;BME280;3872;47.902;8.162;2023-07-28T05:36:19;91508.41;;;17.91;100.00
7660;BME280;3872;47.902;8.162;2023-07-28T05:38:47;91507.72;;;18.29;100.00
7660;BME280;3872;47.902;8.162;2023-07-28T05:41:15;91503.66;;;18.35;100.00
7660;BME280;3872;47.902;8.162;2023-07-28T05:43:43;91510.47;;;18.32;100.00
7660;BME280;3872;47.902;8.162;2023-07-28T05:46:10;91505.63;;;18.38;100.00
7660;BME280;3872;47.902;8.162;2023-07-28T05:48:37;91512.88;;;18.57;100.00
7660;BME280;3872;47.902;8.162;2023-07-28T05:51:03;91507.25;;;18.81;100.00
7660;BME280;3872;47.902;8.162;2023-07-28T05:53:31;91511.41;;;18.59;100.00
7660;BME280;3872;47.902;8.162;2023-07-28T05:56:04;91510.53;;;18.94;100.00
7660;BME280;3872;47.902;8.162;2023-07-28T05:58:32;91512.25;;;19.25;100.00
7660;BME280;3872;47.902;8.162;2023-07-28T06:00:58;91513.94;;;19.13;100.00
7660;BME280;3872;47.902;8.162;2023-07-28T06:03:54;91513.06;;;19.29;100.00
7660;BME280;3872;47.902;8.162;2023-07-28T06:06:25;91516.03;;;19.24;100.00
7660;BME280;3872;47.902;8.162;2023-07-28T06:08:52;91512.88;;;18.76;100.00
7660;BME280;3872;47.902;8.162;2023-07-28T06:11:20;91510.66;;;19.01;100.00
7660;BME280;3872;47.902;8.162;2023-07-28T06:13:47;91510.19;;;18.76;100.00
7660;BME280;3872;47.902;8.162;2023-07-28T06:16:14;91530.53;;;19.03;100.00
7660;BME280;3872;47.902;8.162;2023-07-28T06:22:30;91524.47;;;19.06;100.00
7660;BME280;3872;47.902;8.162;2023-07-28T06:24:56;91527.50;;;19.47;100.00
7660;BME280;3872;47.902;8.162;2023-07-28T06:27:24;91526.53;;;19.36;100.00
7660;BME280;3872;47.902;8.162;2023-07-28T06:29:51;91529.41;;;18.85;100.00
7660;BME280;3872;47.902;8.162;2023-07-28T06:32:17;91526.25;;;18.99;100.00
7660;BME280;3872;47.902;8.162;2023-07-28T06:34:45;91529.13;;;19.09;100.00
7660;BME280;3872;47.902;8.162;2023-07-28T06:37:12;91536.72;;;18.69;100.00
7660;BME280;3872;47.902;8.162;2023-07-28T06:39:39;91542.41;;;19.29;100.00
7660;BME280;3872;47.902;8.162;2023-07-28T06:42:06;91545.66;;;19.18;100.00
7660;BME280;3872;47.902;8.162;2023-07-28T06:44:38;91543.59;;;19.31;100.00
7660;BME280;3872;47.902;8.162;2023-07-28T06:47:05;91542.28;;;19.22;100.00
7660;BME280;3872;47.902;8.162;2023-07-28T06:49:32;91551.94;;;19.49;100.00
7660;BME280;3872;47.902;8.162;2023-07-28T06:52:00;91560.97;;;19.22;100.00
7660;BME280;3872;47.902;8.162;2023-07-28T06:54:26;91552.56;;;19.00;100.00
7660;BME280;3872;47.902;8.162;2023-07-28T06:56:53;91559.66;;;19.35;100.00
7660;BME280;3872;47.902;8.162;2023-07-28T06:59:20;91556.91;;;19.08;100.00
7660;BME280;3872;47.902;8.162;2023-07-28T07:01:47;91557.41;;;18.95;100.00
7660;BME280;3872;47.902;8.162;2023-07-28T07:04:14;91557.19;;;18.84;100.00
7660;BME280;3872;47.902;8.162;2023-07-28T07:06:41;91559.00;;;18.99;100.00
7660;BME280;3872;47.902;8.162;2023-07-28T07:09:08;91554.84;;;19.21;100.00
7660;BME280;3872;47.902;8.162;2023-07-28T07:12:05;91556.19;;;19.31;100.00
7660;BME280;3872;47.902;8.162;2023-07-28T07:15:14;91565.53;;;19.21;100.00
7660;BME280;3872;47.902;8.162;2023-07-28T07:17:42;91566.66;;;19.01;100.00
7660;BME280;3872;47.902;8.162;2023-07-28T07:20:09;91575.69;;;19.35;100.00
7660;BME280;3872;47.902;8.162;2023-07-28T07:22:36;91572.34;;;18.99;100.00
7660;BME280;3872;47.902;8.162;2023-07-28T07:25:04;91577.84;;;19.48;100.00
7660;BME280;3872;47.902;8.162;2023-07-28T07:27:33;91586.22;;;19.28;100.00
7660;BME280;3872;47.902;8.162;2023-07-28T07:29:59;91577.28;;;19.59;100.00
7660;BME280;3872;47.902;8.162;2023-07-28T07:32:26;91576.84;;;20.02;100.00
7660;BME280;3872;47.902;8.162;2023-07-28T07:34:54;91575.94;;;19.49;100.00
7660;BME280;3872;47.902;8.162;2023-07-28T07:37:20;91578.97;;;19.70;100.00
7660;BME280;3872;47.902;8.162;2023-07-28T07:39:47;91581.13;;;19.84;100.00
7660;BME280;3872;47.902;8.162;2023-07-28T07:42:14;91587.66;;;19.86;100.00
7660;BME280;3872;47.902;8.162;2023-07-28T07:44:40;91588.88;;;20.15;100.00
7660;BME280;3872;47.902;8.162;2023-07-28T07:47:14;91590.97;;;20.52;100.00
7660;BME280;3872;47.902;8.162;2023-07-28T07:49:41;91589.75;;;19.74;100.00
7660;BME280;3872;47.902;8.162;2023-07-28T07:52:09;91589.50;;;20.31;100.00
7660;BME280;3872;47.902;8.162;2023-07-28T07:54:35;91599.69;;;19.77;100.00
7660;BME280;3872;47.902;8.162;2023-07-28T07:57:02;91577.56;;;20.25;100.00
7660;BME280;3872;47.902;8.162;2023-07-28T07:59:29;91584.72;;;21.04;100.00
7660;BME280;3872;47.902;8.162;2023-07-28T08:01:57;91585.41;;;20.38;100.00
7660;BME280;3872;47.902;8.162;2023-07-28T08:04:25;91584.19;;;20.09;100.00
7660;BME280;3872;47.902;8.162;2023-07-28T08:06:53;91588.88;;;19.70;100.00
7660;BME280;3872;47.902;8.162;2023-07-28T08:09:21;91592.38;;;19.97;100.00
7660;BME280;3872;47.902;8.162;2023-07-28T08:11:47;91579.63;;;20.62;100.00
7660;BME280;3872;47.902;8.162;2023-07-28T08:14:14;91581.19;;;20.96;100.00
7660;BME280;3872;47.902;8.162;2023-07-28T08:16:40;91579.13;;;20.83;100.00
7660;BME280;3872;47.902;8.162;2023-07-28T08:19:07;91579.31;;;20.41;100.00
7660;BME280;3872;47.902;8.162;2023-07-28T08:21:34;91583.03;;;20.59;100.00
7660;BME280;3872;47.902;8.162;2023-07-28T08:24:02;91582.34;;;19.90;100.00
7660;BME280;3872;47.902;8.162;2023-07-28T08:26:30;91569.81;;;20.17;100.00
7660;BME280;3872;47.902;8.162;2023-07-28T08:28:57;91585.84;;;20.17;100.00
7660;BME280;3872;47.902;8.162;2023-07-28T08:31:23;91577.03;;;20.99;100.00
7660;BME280;3872;47.902;8.162;2023-07-28T08:33:50;91585.41;;;20.67;100.00
7660;BME280;3872;47.902;8.162;2023-07-28T08:36:17;91596.69;;;20.80;100.00
7660;BME280;3872;47.902;8.162;2023-07-28T08:38:43;91599.75;;;20.52;100.00
7660;BME280;3872;47.902;8.162;2023-07-28T08:41:10;91593.91;;;20.47;100.00
7660;BME280;3872;47.902;8.162;2023-07-28T08:43:39;91599.09;;;20.62;100.00
7660;BME280;3872;47.902;8.162;2023-07-28T08:46:05;91602.63;;;20.66;100.00
7660;BME280;3872;47.902;8.162;2023-07-28T08:48:33;91601.59;;;20.48;100.00
7660;BME280;3872;47.902;8.162;2023-07-28T08:50:59;91595.44;;;20.44;100.00
7660;BME280;3872;47.902;8.162;2023-07-28T08:53:26;91601.78;;;20.62;100.00
7660;BME280;3872;47.902;8.162;2023-07-28T08:55:53;91605.00;;;20.75;100.00
7660;BME280;3872;47.902;8.162;2023-07-28T08:58:20;91598.00;;;20.37;100.00
7660;BME280;3872;47.902;8.162;2023-07-28T09:00:51;91607.91;;;20.63;100.00
7660;BME280;3872;47.902;8.162;2023-07-28T09:03:18;91606.03;;;20.37;100.00
7660;BME280;3872;47.902;8.162;2023-07-28T09:05:46;91608.69;;;20.37;100.00
7660;BME280;3872;47.902;8.162;2023-07-28T09:08:13;91599.06;;;21.19;100.00
7660;BME280;3872;47.902;8.162;2023-07-28T09:10:43;91605.44;;;21.40;97.78
7660;BME280;3872;47.902;8.162;2023-07-28T09:13:11;91599.13;;;21.22;95.59
7660;BME280;3872;47.902;8.162;2023-07-28T09:15:38;91600.75;;;21.30;99.97
7660;BME280;3872;47.902;8.162;2023-07-28T09:18:08;91598.31;;;21.52;94.00
7660;BME280;3872;47.902;8.162;2023-07-28T09:20:36;91608.44;;;21.05;96.67
7660;BME280;3872;47.902;8.162;2023-07-28T09:23:03;91608.63;;;20.90;95.87
7660;BME280;3872;47.902;8.162;2023-07-28T09:25:31;91609.19;;;20.73;100.00
7660;BME280;3872;47.902;8.162;2023-07-28T09:27:59;91618.38;;;21.05;98.84
7660;BME280;3872;47.902;8.162;2023-07-28T09:30:25;91618.06;;;20.80;100.00
7660;BME280;3872;47.902;8.162;2023-07-28T09:32:54;91624.91;;;20.78;100.00
7660;BME280;3872;47.902;8.162;2023-07-28T09:35:22;91633.19;;;20.43;100.00
7660;BME280;3872;47.902;8.162;2023-07-28T09:37:50;91627.91;;;21.02;100.00
7660;BME280;3872;47.902;8.162;2023-07-28T09:40:19;91622.78;;;21.17;97.51
7660;BME280;3872;47.902;8.162;2023-07-28T09:42:47;91624.47;;;21.69;87.17
7660;BME280;3872;47.902;8.162;2023-07-28T09:45:16;91628.34;;;21.75;88.42
7660;BME280;3872;47.902;8.162;2023-07-28T09:47:44;91625.22;;;21.66;81.46
7660;BME280;3872;47.902;8.162;2023-07-28T09:50:13;91638.06;;;21.16;81.89
7660;BME280;3872;47.902;8.162;2023-07-28T09:52:43;91632.47;;;21.65;78.98
7660;BME280;3872;47.902;8.162;2023-07-28T09:55:10;91636.63;;;21.59;77.19
7660;BME280;3872;47.902;8.162;2023-07-28T09:57:45;91643.31;;;21.13;80.04
7660;BME280;3872;47.902;8.162;2023-07-28T10:00:14;91637.53;;;21.37;73.14
7660;BME280;3872;47.902;8.162;2023-07-28T10:02:41;91641.22;;;21.59;72.25
7660;BME280;3872;47.902;8.162;2023-07-28T10:05:09;91634.88;;;21.10;83.55
7660;BME280;3872;47.902;8.162;2023-07-28T10:07:38;91625.34;;;21.13;80.47
7660;BME280;3872;47.902;8.162;2023-07-28T10:10:10;91641.56;;;21.94;76.07
7660;BME280;3872;47.902;8.162;2023-07-28T10:12:41;91629.69;;;21.55;77.66
7660;BME280;3872;47.902;8.162;2023-07-28T10:15:12;91654.50;;;21.88;74.36
7660;BME280;3872;47.902;8.162;2023-07-28T10:17:43;91627.06;;;21.58;77.15
7660;BME280;3872;47.902;8.162;2023-07-28T10:20:32;91634.41;;;21.68;77.74
7660;BME280;3872;47.902;8.162;2023-07-28T10:23:06;91632.06;;;21.63;77.15
7660;BME280;3872;47.902;8.162;2023-07-28T10:25:36;91641.91;;;22.33;76.26
7660;BME280;3872;47.902;8.162;2023-07-28T10:28:04;91638.28;;;22.08;79.73
7660;BME280;3872;47.902;8.162;2023-07-28T10:30:35;91632.50;;;22.06;78.18
7660;BME280;3872;47.902;8.162;2023-07-28T10:33:03;91634.97;;;21.84;80.35
7660;BME280;3872;47.902;8.162;2023-07-28T10:35:30;91635.66;;;22.66;77.42
7660;BME280;3872;47.902;8.162;2023-07-28T10:37:58;91638.84;;;23.58;71.43
7660;BME280;3872;47.902;8.162;2023-07-28T10:40:29;91642.13;;;22.61;71.48
7660;BME280;3872;47.902;8.162;2023-07-28T10:42:58;91640.13;;;22.00;79.08
7660;BME280;3872;47.902;8.162;2023-07-28T10:45:26;91657.53;;;21.83;78.21
7660;BME280;3872;47.902;8.162;2023-07-28T10:47:54;91658.06;;;21.63;80.49
7660;BME280;3872;47.902;8.162;2023-07-28T10:50:21;91654.56;;;21.55;79.17
7660;BME280;3872;47.902;8.162;2023-07-28T10:52:48;91658.34;;;21.87;78.51
7660;BME280;3872;47.902;8.162;2023-07-28T10:55:16;91664.09;;;21.53;81.36
7660;BME280;3872;47.902;8.162;2023-07-28T10:57:44;91659.63;;;21.67;77.84
7660;BME280;3872;47.902;8.162;2023-07-28T11:00:20;91659.81;;;21.44;78.27
7660;BME280;3872;47.902;8.162;2023-07-28T11:03:05;91662.06;;;21.42;78.15
7660;BME280;3872;47.902;8.162;2023-07-28T11:14:49;91656.31;;;22.14;75.57
7660;BME280;3872;47.902;8.162;2023-07-28T11:28:46;91647.59;;;21.84;78.45
7660;BME280;3872;47.902;8.162;2023-07-28T11:31:41;91645.34;;;22.30;80.48
7660;BME280;3872;47.902;8.162;2023-07-28T11:34:12;91638.63;;;22.54;75.98
7660;BME280;3872;47.902;8.162;2023-07-28T11:36:40;91641.84;;;22.26;75.38
7660;BME280;3872;47.902;8.162;2023-07-28T11:39:07;91640.94;;;22.52;72.77
7660;BME280;3872;47.902;8.162;2023-07-28T11:41:36;91636.25;;;21.61;78.17
7660;BME280;3872;47.902;8.162;2023-07-28T11:44:04;91634.41;;;22.05;76.54
7660;BME280;3872;47.902;8.162;2023-07-28T11:46:34;91634.03;;;21.70;80.60
7660;BME280;3872;47.902;8.162;2023-07-28T11:49:07;91629.03;;;22.49;76.18
7660;BME280;3872;47.902;8.162;2023-07-28T11:51:37;91632.78;;;22.38;75.76
7660;BME280;3872;47.902;8.162;2023-07-28T11:54:05;91632.13;;;22.55;74.07
7660;BME280;3872;47.902;8.162;2023-07-28T11:56:33;91633.41;;;22.24;76.13
7660;BME280;3872;47.902;8.162;2023-07-28T11:59:01;91635.81;;;22.36;74.95
7660;BME280;3872;47.902;8.162;2023-07-28T12:01:30;91643.41;;;21.49;82.31
7660;BME280;3872;47.902;8.162;2023-07-28T12:03:56;91645.69;;;22.25;75.23
7660;BME280;3872;47.902;8.162;2023-07-28T12:06:26;91643.00;;;21.47;78.47
7660;BME280;3872;47.902;8.162;2023-07-28T12:09:03;91642.78;;;21.63;81.26
7660;BME280;3872;47.902;8.162;2023-07-28T12:12:28;91627.63;;;22.15;79.90
7660;BME280;3872;47.902;8.162;2023-07-28T12:15:18;91636.66;;;22.47;75.85
7660;BME280;3872;47.902;8.162;2023-07-28T12:18:03;91626.47;;;22.71;75.34
7660;BME280;3872;47.902;8.162;2023-07-28T12:20:33;91632.38;;;22.36;79.96
7660;BME280;3872;47.902;8.162;2023-07-28T12:23:00;91619.94;;;21.39;85.92
7660;BME280;3872;47.902;8.162;2023-07-28T12:25:26;91623.53;;;21.91;80.00
7660;BME280;3872;47.902;8.162;2023-07-28T12:27:53;91636.84;;;21.80;81.15
7660;BME280;3872;47.902;8.162;2023-07-28T12:30:20;91634.78;;;22.04;75.53
7660;BME280;3872;47.902;8.162;2023-07-28T12:32:47;91632.94;;;22.59;73.25
7660;BME280;3872;47.902;8.162;2023-07-28T12:35:15;91633.72;;;22.63;72.78
7660;BME280;3872;47.902;8.162;2023-07-28T12:37:41;91629.84;;;22.57;72.68
7660;BME280;3872;47.902;8.162;2023-07-28T12:40:10;91632.22;;;21.77;78.03
7660;BME280;3872;47.902;8.162;2023-07-28T12:42:36;91640.53;;;22.53;74.91
7660;BME280;3872;47.902;8.162;2023-07-28T12:45:04;91648.63;;;22.57;71.18
7660;BME280;3872;47.902;8.162;2023-07-28T12:47:31;91642.13;;;21.40;79.65
7660;BME280;3872;47.902;8.162;2023-07-28T12:49:58;91649.69;;;21.68;78.13
7660;BME280;3872;47.902;8.162;2023-07-28T12:52:26;91647.50;;;21.73;81.17
7660;BME280;3872;47.902;8.162;2023-07-28T12:54:53;91633.53;;;21.94;77.73
7660;BME280;3872;47.902;8.162;2023-07-28T12:57:20;91650.66;;;21.49;83.88
7660;BME280;3872;47.902;8.162;2023-07-28T12:59:46;91650.09;;;21.33;87.28
7660;BME280;3872;47.902;8.162;2023-07-28T13:02:13;91645.72;;;21.51;86.05
7660;BME280;3872;47.902;8.162;2023-07-28T13:04:39;91642.63;;;21.86;83.51
7660;BME280;3872;47.902;8.162;2023-07-28T13:07:06;91650.22;;;21.14;86.63
7660;BME280;3872;47.902;8.162;2023-07-28T13:09:35;91658.38;;;21.91;83.15
7660;BME280;3872;47.902;8.162;2023-07-28T13:19:43;91647.22;;;21.48;81.51
7660;BME280;3872;47.902;8.162;2023-07-28T13:22:39;91661.75;;;21.84;81.26
7660;BME280;3872;47.902;8.162;2023-07-28T13:28:23;91673.47;;;21.36;73.69
7660;BME280;3872;47.902;8.162;2023-07-28T13:30:50;91662.63;;;21.59;72.81
7660;BME280;3872;47.902;8.162;2023-07-28T13:33:17;91661.69;;;21.14;77.71
7660;BME280;3872;47.902;8.162;2023-07-28T13:35:43;91671.72;;;21.51;86.78
7660;BME280;3872;47.902;8.162;2023-07-28T13:38:10;91657.53;;;21.83;87.79
7660;BME280;3872;47.902;8.162;2023-07-28T13:40:37;91666.47;;;21.28;93.85
7660;BME280;3872;47.902;8.162;2023-07-28T13:43:04;91677.63;;;20.77;100.00
7660;BME280;3872;47.902;8.162;2023-07-28T13:45:32;91669.75;;;20.88;97.59
7660;BME280;3872;47.902;8.162;2023-07-28T13:47:58;91667.72;;;21.07;95.41
7660;BME280;3872;47.902;8.162;2023-07-28T13:50:25;91679.34;;;20.17;99.94
7660;BME280;3872;47.902;8.162;2023-07-28T13:52:51;91661.22;;;20.79;94.36
7660;BME280;3872;47.902;8.162;2023-07-28T13:55:18;91657.31;;;20.73;96.53
7660;BME280;3872;47.902;8.162;2023-07-28T13:57:44;91663.97;;;19.87;100.00
7660;BME280;3872;47.902;8.162;2023-07-28T14:00:12;91656.19;;;21.03;100.00